Time;durP1;ratioP1;P1;durP2;ratioP2;P2;SDS_P1;SDS_P2;PMS_P1;PMS_P2;Temp;Humidity;BMP_temperature;BMP_pressure;BME280_temperature;BME280_humidity;BME280_pressure;Samples;Min_cycle;Max_cycle;Signal;HPM_P1;HPM_P2
2022/04/15 00:01:08;;;;;;;0.00;0.00;;;8.40;99.90;;;;;;5040968;28;20132;-63
2022/04/15 00:03:34;;;;;;;0.00;0.00;;;8.80;99.90;;;;;;5038783;28;20856;-66
2022/04/15 00:06:00;;;;;;;0.00;0.00;;;8.50;99.90;;;;;;5048722;28;20048;-65
2022/04/15 00:08:26;;;;;;;0.00;0.00;;;9.40;99.90;;;;;;5069584;28;20097;-64
2022/04/15 00:10:52;;;;;;;0.00;0.00;;;8.70;99.90;;;;;;5068781;28;20036;-64
2022/04/15 00:13:24;;;;;;;0.00;0.00;;;8.50;99.90;;;;;;5069311;28;20051;-63
2022/04/15 00:15:50;;;;;;;0.00;0.00;;;8.60;99.90;;;;;;5070345;28;20044;-63
2022/04/15 00:18:17;;;;;;;0.00;0.00;;;8.60;99.90;;;;;;5065797;28;20082;-63
2022/04/15 00:20:42;;;;;;;0.00;0.00;;;8.50;99.90;;;;;;5061307;28;20102;-63
2022/04/15 00:23:08;;;;;;;0.00;0.00;;;8.60;99.90;;;;;;5061431;28;20674;-65
2022/04/15 00:25:33;;;;;;;0.10;0.10;;;8.60;99.90;;;;;;5059399;28;20578;-64
2022/04/15 00:27:59;;;;;;;0.00;0.00;;;8.60;99.90;;;;;;5060060;28;20069;-64
2022/04/15 00:30:25;;;;;;;0.00;0.00;;;8.50;99.90;;;;;;5060653;28;20048;-64
2022/04/15 00:32:50;;;;;;;0.00;0.00;;;8.50;99.90;;;;;;5060674;28;20166;-64
2022/04/15 00:35:16;;;;;;;0.00;0.00;;;8.60;99.90;;;;;;5060217;28;20089;-63
2022/04/15 00:37:41;;;;;;;0.00;0.00;;;8.60;99.90;;;;;;5060196;28;20056;-64
2022/04/15 00:40:09;;;;;;;0.00;0.00;;;8.60;99.90;;;;;;5059885;28;20483;-64
2022/04/15 00:42:35;;;;;;;0.00;0.00;;;8.60;99.90;;;;;;5059183;28;20061;-63
2022/04/15 00:45:02;;;;;;;0.10;0.10;;;8.70;99.90;;;;;;5062579;28;20131;-64
2022/04/15 00:47:42;;;;;;;0.00;0.00;;;8.70;99.90;;;;;;5054728;28;20057;-65
2022/04/15 00:50:08;;;;;;;0.00;0.00;;;8.70;99.90;;;;;;5043893;28;20120;-63
2022/04/15 00:52:46;;;;;;;0.10;0.10;;;8.70;99.90;;;;;;5042114;28;20135;-65
2022/04/15 00:55:13;;;;;;;0.00;0.00;;;8.70;99.90;;;;;;5044213;28;20049;-64
2022/04/15 00:57:42;;;;;;;0.00;0.00;;;8.60;99.90;;;;;;5044110;28;20045;-64
2022/04/15 01:00:09;;;;;;;0.00;0.00;;;8.60;99.90;;;;;;5044038;28;20094;-64
2022/04/15 01:02:36;;;;;;;0.00;0.00;;;8.70;99.90;;;;;;5044379;28;20041;-63
2022/04/15 01:05:04;;;;;;;0.00;0.00;;;8.70;99.90;;;;;;5054853;22;20261;-64
2022/04/15 01:07:34;;;;;;;0.00;0.00;;;8.70;99.90;;;;;;5052531;28;20056;-62
2022/04/15 01:10:00;;;;;;;0.00;0.00;;;8.80;99.90;;;;;;5063539;28;20213;-63
2022/04/15 01:12:29;;;;;;;0.00;0.00;;;8.70;99.90;;;;;;5042981;28;20128;-62
2022/04/15 01:15:00;;;;;;;0.00;0.00;;;8.70;99.90;;;;;;5043787;28;20147;-64
2022/04/15 01:17:29;;;;;;;0.00;0.00;;;8.70;99.90;;;;;;5043879;28;20555;-63
2022/04/15 01:19:56;;;;;;;0.00;0.00;;;8.70;99.90;;;;;;5044203;28;20056;-63
2022/04/15 01:22:27;;;;;;;0.00;0.00;;;8.70;99.90;;;;;;5043195;28;20517;-62
2022/04/15 01:24:52;;;;;;;0.00;0.00;;;8.70;99.90;;;;;;5044206;28;20045;-62
2022/04/15 01:27:31;;;;;;;0.00;0.00;;;8.70;99.90;;;;;;5041990;28;20059;-62
2022/04/15 01:29:57;;;;;;;0.00;0.00;;;8.70;99.90;;;;;;5043544;28;20442;-63
2022/04/15 01:32:23;;;;;;;0.00;0.00;;;9.60;99.90;;;;;;5043647;28;20040;-63
2022/04/15 01:34:48;;;;;;;0.00;0.00;;;8.70;99.90;;;;;;5043874;28;20040;-63
2022/04/15 01:37:16;;;;;;;0.00;0.00;;;8.70;99.90;;;;;;5042694;28;20175;-62
2022/04/15 01:39:42;;;;;;;0.00;0.00;;;8.70;99.90;;;;;;5043757;28;20052;-63
2022/04/15 01:42:12;;;;;;;0.00;0.00;;;8.70;99.90;;;;;;5043166;28;20491;-63
2022/04/15 01:44:40;;;;;;;0.00;0.00;;;8.70;99.90;;;;;;5043800;28;20041;-63
2022/04/15 01:47:05;;;;;;;0.00;0.00;;;8.70;99.90;;;;;;5052938;28;20045;-63
2022/04/15 01:49:31;;;;;;;0.00;0.00;;;8.80;99.90;;;;;;5042918;28;20040;-64
2022/04/15 01:51:57;;;;;;;0.00;0.00;;;8.70;99.90;;;;;;5043684;28;20045;-63
2022/04/15 01:54:22;;;;;;;0.00;0.00;;;8.60;99.90;;;;;;5041431;28;20045;-63
2022/04/15 01:56:48;;;;;;;0.00;0.00;;;8.70;99.90;;;;;;5042995;28;20772;-64
2022/04/15 01:59:13;;;;;;;0.00;0.00;;;8.70;99.90;;;;;;5043280;28;20083;-63
2022/04/15 02:01:39;;;;;;;0.00;0.00;;;8.70;99.90;;;;;;5043688;28;20395;-63
2022/04/15 02:04:05;;;;;;;0.00;0.00;;;8.70;99.90;;;;;;5043274;28;20582;-63
2022/04/15 02:06:30;;;;;;;0.00;0.00;;;8.70;99.90;;;;;;5057838;28;20053;-62
2022/04/15 02:08:56;;;;;;;0.00;0.00;;;8.70;99.90;;;;;;5043432;28;20472;-63
2022/04/15 02:11:22;;;;;;;0.00;0.00;;;8.70;99.90;;;;;;5042358;28;20079;-64
2022/04/15 02:13:47;;;;;;;0.00;0.00;;;8.70;99.90;;;;;;5057933;28;20041;-63
2022/04/15 02:16:13;;;;;;;0.35;0.13;;;8.70;99.90;;;;;;5042864;28;20480;-63
2022/04/15 02:18:38;;;;;;;0.00;0.00;;;8.70;99.90;;;;;;5043251;28;20136;-63
2022/04/15 02:21:04;;;;;;;0.00;0.00;;;8.70;99.90;;;;;;5042967;28;20113;-63
2022/04/15 02:23:30;;;;;;;0.00;0.00;;;8.70;99.90;;;;;;5058176;28;20468;-64
2022/04/15 02:25:55;;;;;;;0.00;0.00;;;8.70;99.90;;;;;;5042418;28;20098;-63
2022/04/15 02:28:21;;;;;;;0.00;0.00;;;8.70;99.90;;;;;;5057615;28;20045;-62
2022/04/15 02:30:47;;;;;;;0.00;0.00;;;8.80;99.90;;;;;;5042408;28;20080;-65
2022/04/15 02:33:16;;;;;;;0.00;0.00;;;8.70;99.90;;;;;;5042592;28;20049;-62
2022/04/15 02:35:42;;;;;;;0.00;0.00;;;8.70;99.90;;;;;;5042807;28;20037;-63
2022/04/15 02:38:08;;;;;;;0.00;0.00;;;8.70;99.90;;;;;;5042644;28;20055;-64
2022/04/15 02:40:33;;;;;;;0.00;0.00;;;8.80;99.90;;;;;;5041771;28;20408;-64
2022/04/15 02:43:01;;;;;;;0.00;0.00;;;9.20;99.90;;;;;;5042740;28;20109;-63
2022/04/15 02:45:29;;;;;;;0.00;0.00;;;8.70;99.90;;;;;;5044872;28;20050;-63
2022/04/15 02:47:55;;;;;;;0.00;0.00;;;8.70;99.90;;;;;;5051148;28;20049;-63
2022/04/15 02:50:21;;;;;;;0.00;0.00;;;8.60;99.90;;;;;;5042304;28;20036;-63
2022/04/15 02:52:47;;;;;;;0.00;0.00;;;8.60;99.90;;;;;;5042665;28;20059;-64
2022/04/15 02:55:13;;;;;;;0.00;0.00;;;8.60;99.90;;;;;;5041177;28;20086;-63
2022/04/15 02:57:39;;;;;;;0.00;0.00;;;8.60;99.90;;;;;;5042900;28;20474;-63
2022/04/15 03:00:05;;;;;;;0.00;0.00;;;8.50;99.90;;;;;;5042610;28;20049;-63
2022/04/15 03:02:32;;;;;;;0.00;0.00;;;8.50;99.90;;;;;;5041689;28;20044;-63
2022/04/15 03:04:58;;;;;;;0.00;0.00;;;8.50;99.90;;;;;;5041516;28;20053;-63
2022/04/15 03:07:24;;;;;;;0.00;0.00;;;8.50;99.90;;;;;;5041752;28;20156;-63
2022/04/15 03:09:49;;;;;;;0.00;0.00;;;8.50;99.90;;;;;;5057783;28;20048;-65
2022/04/15 03:12:15;;;;;;;0.00;0.00;;;9.20;99.90;;;;;;5055552;28;20128;-63
2022/04/15 03:14:41;;;;;;;0.00;0.00;;;8.50;99.90;;;;;;5042105;28;20377;-64
2022/04/15 03:17:07;;;;;;;0.00;0.00;;;8.40;99.90;;;;;;5042380;28;20102;-64
2022/04/15 03:19:33;;;;;;;0.00;0.00;;;8.50;99.90;;;;;;5041371;28;20476;-63
2022/04/15 03:21:58;;;;;;;0.00;0.00;;;8.40;99.90;;;;;;5041469;28;20092;-64
2022/04/15 03:24:24;;;;;;;0.00;0.00;;;8.40;99.90;;;;;;5041556;28;20479;-63
2022/04/15 03:26:50;;;;;;;0.00;0.00;;;8.50;99.90;;;;;;5056885;28;20590;-64
2022/04/15 03:29:16;;;;;;;0.00;0.00;;;8.70;99.90;;;;;;5041322;28;20044;-62
2022/04/15 03:31:42;;;;;;;0.00;0.00;;;8.50;99.90;;;;;;5041097;28;20135;-63
2022/04/15 03:34:08;;;;;;;0.00;0.00;;;8.50;99.90;;;;;;5041690;28;20033;-64
2022/04/15 03:36:33;;;;;;;0.00;0.00;;;8.50;99.90;;;;;;5056600;28;20045;-64
2022/04/15 03:38:59;;;;;;;0.00;0.00;;;8.40;99.90;;;;;;5041208;28;20041;-62
2022/04/15 03:41:25;;;;;;;0.00;0.00;;;8.40;99.90;;;;;;5040360;28;20415;-63
2022/04/15 03:43:50;;;;;;;0.00;0.00;;;8.40;99.90;;;;;;5041452;28;20116;-63
2022/04/15 03:46:16;;;;;;;0.00;0.00;;;8.40;99.90;;;;;;5046385;28;20709;-63
2022/04/15 03:48:42;;;;;;;0.00;0.00;;;8.30;99.90;;;;;;5046807;28;20107;-64
2022/04/15 03:51:11;;;;;;;0.00;0.00;;;8.30;99.90;;;;;;5041825;28;20045;-64
2022/04/15 03:53:37;;;;;;;0.00;0.00;;;8.30;99.90;;;;;;5041698;28;20040;-63
2022/04/15 03:56:03;;;;;;;0.00;0.00;;;8.30;99.90;;;;;;5040062;28;20420;-64
2022/04/15 03:58:29;;;;;;;0.00;0.00;;;8.20;99.90;;;;;;5040812;28;20048;-64
2022/04/15 04:00:55;;;;;;;0.00;0.00;;;8.90;99.90;;;;;;5041646;28;20037;-63
2022/04/15 04:03:21;;;;;;;0.00;0.00;;;8.30;99.90;;;;;;5056295;28;20072;-63
2022/04/15 04:05:47;;;;;;;0.00;0.00;;;8.20;99.90;;;;;;5040604;28;20057;-64
2022/04/15 04:08:12;;;;;;;0.00;0.00;;;8.30;99.90;;;;;;5056256;28;20128;-63
2022/04/15 04:10:38;;;;;;;0.00;0.00;;;8.30;99.90;;;;;;5040499;28;20037;-64
2022/04/15 04:13:04;;;;;;;0.00;0.00;;;8.20;99.90;;;;;;5056012;28;20128;-63
2022/04/15 04:15:31;;;;;;;0.00;0.00;;;8.20;99.90;;;;;;5041037;28;20060;-63
2022/04/15 04:17:57;;;;;;;0.00;0.00;;;8.30;99.90;;;;;;5055361;28;20049;-63
2022/04/15 04:20:23;;;;;;;0.00;0.00;;;8.20;99.90;;;;;;5040389;28;20049;-64
2022/04/15 04:22:49;;;;;;;0.00;0.00;;;8.20;99.90;;;;;;5040433;28;20045;-63
2022/04/15 04:25:14;;;;;;;0.00;0.00;;;8.20;99.90;;;;;;5039817;28;20514;-63
2022/04/15 04:27:41;;;;;;;0.00;0.00;;;8.10;99.90;;;;;;5040905;28;20434;-63
2022/04/15 04:30:09;;;;;;;0.30;0.10;;;8.40;99.90;;;;;;5056094;28;20056;-63
2022/04/15 04:32:35;;;;;;;0.00;0.00;;;8.10;99.90;;;;;;5040577;28;20118;-63
2022/04/15 04:35:01;;;;;;;0.00;0.00;;;8.10;99.90;;;;;;5041061;28;20448;-63
2022/04/15 04:37:27;;;;;;;0.00;0.00;;;8.00;99.90;;;;;;5040595;28;20124;-63
2022/04/15 04:39:53;;;;;;;0.00;0.00;;;8.00;99.90;;;;;;5039673;28;20463;-63
2022/04/15 04:42:21;;;;;;;0.00;0.00;;;8.00;99.90;;;;;;5040179;28;20049;-63
2022/04/15 04:44:47;;;;;;;0.00;0.00;;;8.00;99.90;;;;;;5055962;28;20088;-63
2022/04/15 04:47:13;;;;;;;0.00;0.00;;;8.00;99.90;;;;;;5051282;28;20076;-63
2022/04/15 04:49:38;;;;;;;0.00;0.00;;;7.90;99.90;;;;;;5041506;28;20099;-63
2022/04/15 04:52:05;;;;;;;0.00;0.00;;;8.00;99.90;;;;;;5040962;28;20050;-63
2022/04/15 04:54:31;;;;;;;0.00;0.00;;;8.00;99.90;;;;;;5040270;28;20049;-63
2022/04/15 04:56:57;;;;;;;0.00;0.00;;;8.00;99.90;;;;;;5039412;28;20098;-64
2022/04/15 04:59:25;;;;;;;0.00;0.00;;;8.60;99.90;;;;;;5039783;28;20074;-63
2022/04/15 05:01:51;;;;;;;0.00;0.00;;;7.40;99.90;;;;;;5040879;28;20114;-63
2022/04/15 05:04:16;;;;;;;0.00;0.00;;;7.90;99.90;;;;;;5039841;28;20072;-64
2022/04/15 05:06:42;;;;;;;0.00;0.00;;;7.90;99.90;;;;;;5040378;28;20081;-63
2022/04/15 05:09:08;;;;;;;0.00;0.00;;;7.80;99.90;;;;;;5040713;28;20190;-63
2022/04/15 05:11:33;;;;;;;0.00;0.00;;;7.90;99.90;;;;;;5039359;28;20072;-63
2022/04/15 05:13:59;;;;;;;0.00;0.00;;;7.90;99.90;;;;;;5039994;28;20651;-63
2022/04/15 05:16:25;;;;;;;0.00;0.00;;;7.90;99.90;;;;;;5040293;28;20660;-63
2022/04/15 05:18:50;;;;;;;0.00;0.00;;;7.90;99.90;;;;;;5040257;28;20037;-63
2022/04/15 05:21:16;;;;;;;0.00;0.00;;;7.90;99.90;;;;;;5040189;28;20120;-63
2022/04/15 05:23:41;;;;;;;0.00;0.00;;;7.90;99.90;;;;;;5040103;28;20464;-63
2022/04/15 05:26:07;;;;;;;0.00;0.00;;;7.80;99.90;;;;;;5038813;28;20049;-63
2022/04/15 05:28:35;;;;;;;0.00;0.00;;;7.90;99.90;;;;;;5040222;28;20048;-63
2022/04/15 05:31:04;;;;;;;0.00;0.00;;;7.80;99.90;;;;;;5043574;28;20257;-64
2022/04/15 05:33:30;;;;;;;0.00;0.00;;;7.80;99.90;;;;;;5043463;28;20353;-63
2022/04/15 05:35:57;;;;;;;0.00;0.00;;;7.80;99.90;;;;;;5043717;28;20132;-63
2022/04/15 05:38:22;;;;;;;0.00;0.00;;;7.80;99.90;;;;;;5043519;28;20037;-63
2022/04/15 05:40:48;;;;;;;0.00;0.00;;;8.00;99.90;;;;;;5043314;28;20092;-63
2022/04/15 05:43:15;;;;;;;0.00;0.00;;;7.80;99.90;;;;;;5043638;28;20045;-63
2022/04/15 05:45:40;;;;;;;0.00;0.00;;;8.90;99.90;;;;;;5046424;28;20785;-64
2022/04/15 05:48:06;;;;;;;0.00;0.00;;;7.90;99.90;;;;;;5052172;28;20049;-64
2022/04/15 05:50:32;;;;;;;0.00;0.00;;;7.90;99.90;;;;;;5043242;28;20106;-63
2022/04/15 05:52:57;;;;;;;0.00;0.00;;;8.10;99.90;;;;;;5043961;28;20153;-64
2022/04/15 05:55:23;;;;;;;0.00;0.00;;;8.00;99.90;;;;;;5057571;28;20037;-64
2022/04/15 05:57:48;;;;;;;0.00;0.00;;;7.90;99.90;;;;;;5042847;28;20141;-64
2022/04/15 06:00:14;;;;;;;0.00;0.00;;;7.90;99.90;;;;;;5043305;28;20041;-65
2022/04/15 06:02:40;;;;;;;0.00;0.00;;;7.90;99.90;;;;;;5042117;28;20048;-63
2022/04/15 06:05:07;;;;;;;0.00;0.00;;;8.00;99.90;;;;;;5043036;28;20679;-64
2022/04/15 06:07:32;;;;;;;0.00;0.00;;;8.00;99.90;;;;;;5042957;28;20084;-64
2022/04/15 06:09:58;;;;;;;0.00;0.00;;;8.00;99.90;;;;;;5042889;28;20512;-64
2022/04/15 06:15:22;;;;;;;0.00;0.00;;;8.10;99.90;;;;;;5042414;28;20124;-63
2022/04/15 06:17:48;;;;;;;0.00;0.00;;;8.10;99.90;;;;;;5043251;28;20037;-63
2022/04/15 06:20:14;;;;;;;0.00;0.00;;;8.10;99.90;;;;;;5042210;28;20041;-63
2022/04/15 06:22:44;;;;;;;0.00;0.00;;;8.20;99.90;;;;;;5042940;28;20037;-63
2022/04/15 06:25:10;;;;;;;0.00;0.00;;;8.40;99.90;;;;;;5042518;28;20455;-64
2022/04/15 06:27:36;;;;;;;0.00;0.00;;;8.20;99.90;;;;;;5042412;28;20041;-63
2022/04/15 06:30:03;;;;;;;0.00;0.00;;;8.10;99.90;;;;;;5043067;28;20048;-63
2022/04/15 06:32:28;;;;;;;0.00;0.00;;;8.20;99.90;;;;;;5042671;28;20053;-65
2022/04/15 06:34:54;;;;;;;0.10;0.10;;;8.20;99.90;;;;;;5042765;28;20139;-64
2022/04/15 06:37:20;;;;;;;0.00;0.00;;;8.20;99.90;;;;;;5041419;28;20063;-63
2022/04/15 06:39:50;;;;;;;0.00;0.00;;;8.20;99.90;;;;;;5042111;28;20071;-63
2022/04/15 06:42:21;;;;;;;0.00;0.00;;;8.20;99.90;;;;;;5045577;28;20041;-65
2022/04/15 06:44:47;;;;;;;0.00;0.00;;;8.20;99.90;;;;;;5062100;28;20095;-64
2022/04/15 06:47:13;;;;;;;0.00;0.00;;;8.20;99.90;;;;;;5053725;28;20173;-63
2022/04/15 06:49:38;;;;;;;0.00;0.00;;;8.20;99.90;;;;;;5042934;28;20128;-63
2022/04/15 06:52:04;;;;;;;0.00;0.00;;;8.20;99.90;;;;;;5041898;28;20045;-63
2022/04/15 06:54:30;;;;;;;0.00;0.00;;;8.30;99.90;;;;;;5056649;28;20045;-64
2022/04/15 06:56:56;;;;;;;0.00;0.00;;;9.40;99.90;;;;;;5056531;28;20088;-65
2022/04/15 06:59:21;;;;;;;0.00;0.00;;;8.40;99.90;;;;;;5067872;28;20111;-63
2022/04/15 07:01:47;;;;;;;0.00;0.00;;;8.40;99.90;;;;;;5071826;28;20056;-63
2022/04/15 07:04:13;;;;;;;0.00;0.00;;;8.30;99.90;;;;;;5071981;28;20029;-64
2022/04/15 07:06:39;;;;;;;0.00;0.00;;;8.30;99.90;;;;;;5068917;28;20060;-64
2022/04/15 07:09:04;;;;;;;0.00;0.00;;;8.30;99.90;;;;;;5077007;28;20119;-65
2022/04/15 07:11:30;;;;;;;0.00;0.00;;;8.40;99.90;;;;;;5080520;28;20052;-65
2022/04/15 07:13:55;;;;;;;0.00;0.00;;;8.30;99.90;;;;;;5081564;28;20064;-64
2022/04/15 07:16:21;;;;;;;0.00;0.00;;;8.40;99.90;;;;;;5063456;28;20040;-65
2022/04/15 07:18:46;;;;;;;0.00;0.00;;;8.50;99.90;;;;;;5081284;28;20039;-64
2022/04/15 07:21:12;;;;;;;0.00;0.00;;;8.60;99.90;;;;;;5063537;28;20171;-64
2022/04/15 07:23:38;;;;;;;0.00;0.00;;;8.60;99.90;;;;;;5081850;28;20036;-64
2022/04/15 07:26:03;;;;;;;0.00;0.00;;;8.60;99.90;;;;;;5079878;28;20478;-63
2022/04/15 07:28:29;;;;;;;0.00;0.00;;;8.60;99.90;;;;;;5054895;28;20303;-63
2022/04/15 07:30:55;;;;;;;0.10;0.10;;;8.60;99.90;;;;;;5053597;28;20037;-63
2022/04/15 07:33:20;;;;;;;0.00;0.00;;;8.90;99.90;;;;;;5044138;28;20571;-63
2022/04/15 07:35:46;;;;;;;0.00;0.00;;;8.60;99.90;;;;;;5041870;28;20172;-63
2022/04/15 07:38:12;;;;;;;0.00;0.00;;;8.70;99.90;;;;;;5043204;28;20041;-63
2022/04/15 07:40:38;;;;;;;0.00;0.00;;;8.90;99.90;;;;;;5040717;28;20103;-63
2022/04/15 07:43:04;;;;;;;0.00;0.00;;;8.70;99.90;;;;;;5055233;28;20117;-62
2022/04/15 07:45:29;;;;;;;0.00;0.00;;;8.80;99.90;;;;;;5054153;28;20060;-63
2022/04/15 07:47:55;;;;;;;0.00;0.00;;;8.80;99.90;;;;;;5052811;28;20040;-63
2022/04/15 07:50:25;;;;;;;0.00;0.00;;;8.80;99.90;;;;;;5044917;28;20106;-63
2022/04/15 07:52:58;;;;;;;0.00;0.00;;;8.80;99.90;;;;;;5047501;28;20060;-63
2022/04/15 07:55:24;;;;;;;0.00;0.00;;;8.90;99.90;;;;;;5046783;28;20041;-64
2022/04/15 07:57:50;;;;;;;0.00;0.00;;;8.90;99.90;;;;;;5045268;28;20487;-63
2022/04/15 08:00:16;;;;;;;0.00;0.00;;;8.90;99.90;;;;;;5051751;28;20407;-63
2022/04/15 08:02:42;;;;;;;0.00;0.00;;;9.00;99.90;;;;;;5045555;28;20052;-65
2022/04/15 08:05:08;;;;;;;0.00;0.00;;;9.10;99.90;;;;;;5046889;28;20037;-63
2022/04/15 08:07:34;;;;;;;0.00;0.00;;;9.10;99.90;;;;;;5050357;28;20047;-63
2022/04/15 08:10:00;;;;;;;0.00;0.00;;;9.10;99.90;;;;;;5047463;28;20060;-60
2022/04/15 08:12:26;;;;;;;0.00;0.00;;;9.50;99.90;;;;;;5049883;28;20043;-63
2022/04/15 08:14:52;;;;;;;0.00;0.00;;;9.80;99.90;;;;;;5043092;28;20041;-64
2022/04/15 08:17:18;;;;;;;0.00;0.00;;;9.80;99.90;;;;;;5054828;28;20052;-64
2022/04/15 08:19:44;;;;;;;0.00;0.00;;;9.80;99.90;;;;;;5052702;28;20044;-63
2022/04/15 08:22:10;;;;;;;0.00;0.00;;;9.80;99.90;;;;;;5056447;28;20041;-63
2022/04/15 08:24:39;;;;;;;0.00;0.00;;;9.80;99.90;;;;;;5045347;28;20674;-63
2022/04/15 08:27:05;;;;;;;0.00;0.00;;;9.90;99.90;;;;;;5049670;28;20564;-62
2022/04/15 08:29:31;;;;;;;0.00;0.00;;;10.00;99.90;;;;;;5046467;28;20686;-62
2022/04/15 08:31:57;;;;;;;0.00;0.00;;;10.10;99.90;;;;;;5051240;28;20059;-62
2022/04/15 08:34:23;;;;;;;0.00;0.00;;;11.10;99.90;;;;;;5054855;28;20490;-62
2022/04/15 08:36:48;;;;;;;0.00;0.00;;;10.00;99.90;;;;;;5057975;28;20053;-62
2022/04/15 08:39:14;;;;;;;0.00;0.00;;;10.30;99.90;;;;;;5047582;28;20124;-62
2022/04/15 08:41:42;;;;;;;0.00;0.00;;;10.10;99.90;;;;;;5053052;28;20118;-63
2022/04/15 08:44:08;;;;;;;0.00;0.00;;;10.50;99.90;;;;;;5044961;28;20040;-63
2022/04/15 08:46:35;;;;;;;0.00;0.00;;;10.20;99.90;;;;;;5048341;28;20041;-63
2022/04/15 08:49:02;;;;;;;0.00;0.00;;;11.30;99.90;;;;;;5061115;28;20067;-64
2022/04/15 08:51:29;;;;;;;0.00;0.00;;;10.30;99.90;;;;;;5054765;28;20261;-64
2022/04/15 08:53:56;;;;;;;0.00;0.00;;;10.20;99.90;;;;;;5062615;28;20079;-64
2022/04/15 08:56:25;;;;;;;0.00;0.00;;;10.30;99.90;;;;;;5051275;28;20049;-63
2022/04/15 08:58:50;;;;;;;0.00;0.00;;;10.40;99.90;;;;;;5047350;28;20698;-62
2022/04/15 09:01:16;;;;;;;0.00;0.00;;;10.40;99.90;;;;;;5056036;28;20124;-63
2022/04/15 09:03:43;;;;;;;0.00;0.00;;;10.40;99.90;;;;;;5048432;28;20052;-63
2022/04/15 09:06:18;;;;;;;0.00;0.00;;;10.50;99.90;;;;;;5052438;28;20060;-63
2022/04/15 09:09:08;;;;;;;0.00;0.00;;;10.40;99.90;;;;;;5051468;28;20044;-63
2022/04/15 09:11:35;;;;;;;0.00;0.00;;;10.20;99.90;;;;;;5062755;28;20390;-63
2022/04/15 09:14:10;;;;;;;0.00;0.00;;;10.30;99.90;;;;;;5065909;28;20048;-63
2022/04/15 09:16:46;;;;;;;;;;;10.40;99.90;;;;;;5047097;28;20283;-62
2022/04/15 09:19:12;;;;;;;0.00;0.00;;;10.30;99.90;;;;;;5052612;28;19940;-63
2022/04/15 09:21:48;;;;;;;0.00;0.00;;;10.20;99.90;;;;;;5045011;28;20087;-62
2022/04/15 09:24:14;;;;;;;0.00;0.00;;;10.30;99.90;;;;;;5062734;28;20080;-63
2022/04/15 09:26:44;;;;;;;0.00;0.00;;;10.50;99.90;;;;;;5048682;28;20100;-63
2022/04/15 09:29:12;;;;;;;0.00;0.00;;;10.50;99.90;;;;;;5054561;28;20049;-63
2022/04/15 09:31:37;;;;;;;0.00;0.00;;;10.70;99.90;;;;;;5052772;28;20044;-64
2022/04/15 09:34:05;;;;;;;0.00;0.00;;;10.70;99.90;;;;;;5052158;28;20048;-63
2022/04/15 09:36:38;;;;;;;0.00;0.00;;;10.60;99.90;;;;;;5055177;28;20049;-62
2022/04/15 09:39:11;;;;;;;0.00;0.00;;;10.70;99.90;;;;;;5060952;28;20044;-63
2022/04/15 09:41:50;;;;;;;0.00;0.00;;;10.60;99.90;;;;;;5048289;28;20056;-63
2022/04/15 09:44:16;;;;;;;0.00;0.00;;;10.50;99.90;;;;;;5054312;28;20040;-63
2022/04/15 09:46:44;;;;;;;0.00;0.00;;;10.60;99.90;;;;;;5054238;28;20545;-63
2022/04/15 09:49:11;;;;;;;0.00;0.00;;;10.60;99.90;;;;;;5049622;28;20068;-63
2022/04/15 09:51:42;;;;;;;0.00;0.00;;;10.60;99.90;;;;;;5040319;28;20068;-63
2022/04/15 09:54:22;;;;;;;0.00;0.00;;;10.70;99.90;;;;;;5050370;28;20580;-62
2022/04/15 09:56:49;;;;;;;0.00;0.00;;;10.70;99.90;;;;;;5061317;28;20069;-63
2022/04/15 09:59:15;;;;;;;0.00;0.00;;;10.80;99.90;;;;;;5050050;28;20068;-64
2022/04/15 10:01:46;;;;;;;0.00;0.00;;;11.00;99.90;;;;;;5052318;28;20113;-63
2022/04/15 10:04:13;;;;;;;0.00;0.00;;;10.70;99.90;;;;;;5050699;28;20146;-64
2022/04/15 10:06:41;;;;;;;0.00;0.00;;;10.70;99.90;;;;;;5047709;28;20072;-63
2022/04/15 10:09:13;;;;;;;0.00;0.00;;;10.90;99.90;;;;;;5047262;28;20782;-64
2022/04/15 10:11:43;;;;;;;0.00;0.00;;;10.60;99.90;;;;;;5049963;28;20469;-63
2022/04/15 10:14:10;;;;;;;0.00;0.00;;;10.60;99.90;;;;;;5047349;28;20098;-63
2022/04/15 10:16:38;;;;;;;0.20;0.10;;;10.60;99.90;;;;;;5047986;28;20365;-63
2022/04/15 10:19:04;;;;;;;0.00;0.00;;;10.40;99.90;;;;;;5057511;28;20075;-63
2022/04/15 10:21:36;;;;;;;0.00;0.00;;;10.30;99.90;;;;;;5052620;28;20068;-63
2022/04/15 10:24:03;;;;;;;0.00;0.00;;;10.20;99.90;;;;;;5045299;28;20076;-64
2022/04/15 10:26:39;;;;;;;0.00;0.00;;;10.30;99.90;;;;;;5048806;28;20048;-63
2022/04/15 10:29:05;;;;;;;0.00;0.00;;;10.20;99.90;;;;;;5051525;28;20041;-63
2022/04/15 10:31:45;;;;;;;0.00;0.00;;;10.10;99.90;;;;;;5047708;28;20288;-59
2022/04/15 10:34:16;;;;;;;0.00;0.00;;;10.50;99.90;;;;;;5051598;28;20044;-63
2022/04/15 10:36:50;;;;;;;0.00;0.00;;;10.50;99.90;;;;;;5050838;28;20049;-64
2022/04/15 10:39:18;;;;;;;0.00;0.00;;;10.60;99.90;;;;;;5055805;28;20745;-63
2022/04/15 10:41:53;;;;;;;0.00;0.00;;;10.30;99.90;;;;;;5056262;28;20064;-63
2022/04/15 10:44:29;;;;;;;;;;;10.30;99.90;;;;;;5053942;28;20056;-65
2022/04/15 10:47:09;;;;;;;0.00;0.00;;;10.30;99.90;;;;;;5046393;28;19973;-63
2022/04/15 10:49:52;;;;;;;0.00;0.00;;;10.30;99.90;;;;;;5048211;28;20118;-62
2022/04/15 10:52:21;;;;;;;0.00;0.00;;;10.20;99.90;;;;;;5046148;28;20390;-63
2022/04/15 10:54:59;;;;;;;0.00;0.00;;;10.90;99.90;;;;;;5043031;28;20048;-63
2022/04/15 10:57:36;;;;;;;0.00;0.00;;;10.20;99.90;;;;;;5055750;28;20392;-63
2022/04/15 11:02:55;;;;;;;0.00;0.00;;;10.10;99.90;;;;;;5049747;28;20053;-63
2022/04/15 11:06:02;;;;;;;0.00;0.00;;;10.10;99.90;;;;;;5047693;28;20136;-63
2022/04/15 11:08:43;;;;;;;0.00;0.00;;;10.10;99.90;;;;;;4995035;28;20053;-62
2022/04/15 11:11:09;;;;;;;0.00;0.00;;;10.30;99.90;;;;;;5010865;28;20049;-62
2022/04/15 11:13:40;;;;;;;0.00;0.00;;;10.60;99.90;;;;;;5017748;28;20045;-62
2022/04/15 11:16:16;;;;;;;0.00;0.00;;;10.90;99.90;;;;;;5057761;28;20087;-64
2022/04/15 11:19:01;;;;;;;0.00;0.00;;;11.00;99.90;;;;;;5054054;28;20049;-62
2022/04/15 11:21:30;;;;;;;0.00;0.00;;;11.10;99.90;;;;;;5046503;28;20048;-64
2022/04/15 11:24:00;;;;;;;0.00;0.00;;;10.90;99.90;;;;;;5056403;28;20040;-65
2022/04/15 11:26:27;;;;;;;0.00;0.00;;;10.80;99.90;;;;;;5043999;28;20044;-63
2022/04/15 11:28:57;;;;;;;0.00;0.00;;;10.70;99.90;;;;;;5051987;28;20123;-64
2022/04/15 11:31:29;;;;;;;0.00;0.00;;;10.60;99.90;;;;;;5061318;28;20568;-64
2022/04/15 11:34:16;;;;;;;0.00;0.00;;;10.60;99.90;;;;;;5062139;28;20483;-64
2022/04/15 11:36:43;;;;;;;0.00;0.00;;;10.40;99.90;;;;;;5061269;28;20391;-64
2022/04/15 11:39:10;;;;;;;0.00;0.00;;;10.40;99.90;;;;;;5061614;28;20402;-61
2022/04/15 11:41:44;;;;;;;0.00;0.00;;;10.30;99.90;;;;;;5060766;28;20048;-63
2022/04/15 11:44:10;;;;;;;0.00;0.00;;;10.20;99.90;;;;;;5062175;28;20036;-64
2022/04/15 11:46:36;;;;;;;0.00;0.00;;;10.20;99.90;;;;;;5059722;28;20117;-64
2022/04/15 11:49:12;;;;;;;0.00;0.00;;;10.20;99.90;;;;;;5043325;28;20458;-65
2022/04/15 11:51:37;;;;;;;0.00;0.00;;;10.20;99.90;;;;;;5062291;28;20501;-65
2022/04/15 11:54:03;;;;;;;0.00;0.00;;;10.30;99.90;;;;;;5060058;28;20032;-65
2022/04/15 11:56:29;;;;;;;0.00;0.00;;;10.10;99.90;;;;;;5060791;28;20271;-65
2022/04/15 11:58:57;;;;;;;0.00;0.00;;;10.10;99.90;;;;;;5061226;28;20048;-66
2022/04/15 12:01:27;;;;;;;0.00;0.00;;;10.10;99.90;;;;;;5060374;28;20052;-66
2022/04/15 12:03:53;;;;;;;0.00;0.00;;;10.10;99.90;;;;;;5062789;28;20090;-66
2022/04/15 12:06:19;;;;;;;0.00;0.00;;;10.00;99.90;;;;;;5070255;28;20044;-65
2022/04/15 12:08:45;;;;;;;0.00;0.00;;;10.00;99.90;;;;;;5063426;28;20054;-65
2022/04/15 12:11:11;;;;;;;0.00;0.00;;;10.00;99.90;;;;;;5060879;28;20050;-62
2022/04/15 12:13:36;;;;;;;0.00;0.00;;;10.90;99.90;;;;;;5071179;28;20044;-65
2022/04/15 12:16:04;;;;;;;0.00;0.00;;;10.00;99.90;;;;;;5070568;28;20048;-66
2022/04/15 12:18:30;;;;;;;0.00;0.00;;;10.00;99.90;;;;;;5060848;28;20076;-64
2022/04/15 12:20:56;;;;;;;0.00;0.00;;;10.20;99.90;;;;;;5061289;28;20072;-65
2022/04/15 12:23:25;;;;;;;0.00;0.00;;;10.00;99.90;;;;;;5060618;28;20375;-66
2022/04/15 12:26:09;;;;;;;0.00;0.00;;;10.00;99.90;;;;;;5061501;28;20049;-66
2022/04/15 12:31:31;;;;;;;0.00;0.00;;;10.30;99.90;;;;;;5060568;28;20175;-66
2022/04/15 12:33:58;;;;;;;0.00;0.00;;;10.30;99.90;;;;;;5061240;28;20037;-67
2022/04/15 12:36:24;;;;;;;0.00;0.00;;;10.00;99.90;;;;;;5060938;28;20082;-67
2022/04/15 12:39:00;;;;;;;0.00;0.00;;;10.00;99.90;;;;;;5061165;28;20082;-67
2022/04/15 12:41:41;;;;;;;0.00;0.00;;;10.00;99.90;;;;;;5063607;28;20047;-66
2022/04/15 12:44:23;;;;;;;0.00;0.00;;;9.90;99.90;;;;;;5065494;28;20119;-66
2022/04/15 12:46:58;;;;;;;0.00;0.00;;;10.00;99.90;;;;;;5059081;28;20127;-66
2022/04/15 12:49:28;;;;;;;0.00;0.00;;;10.00;99.90;;;;;;5044700;28;20045;-67
2022/04/15 12:52:07;;;;;;;0.00;0.00;;;10.00;99.90;;;;;;5043563;28;20052;-67
2022/04/15 12:54:32;;;;;;;0.00;0.00;;;10.00;99.90;;;;;;5043364;28;20411;-66
2022/04/15 12:56:58;;;;;;;0.00;0.00;;;10.10;99.90;;;;;;5044581;28;20041;-67
2022/04/15 12:59:26;;;;;;;0.00;0.00;;;10.10;99.90;;;;;;5042964;28;20052;-67
2022/04/15 13:01:52;;;;;;;0.00;0.00;;;10.10;99.90;;;;;;5044775;28;20071;-66
2022/04/15 13:04:17;;;;;;;0.00;0.00;;;10.10;99.90;;;;;;5044243;28;20041;-66